Terminal Aerodrome Forecast
Issued by NWS

Home | Current Version | Previous Version | Text Only | Print | Product List | Glossary On
Versions: 1 2 3 4 5 6 7 8 9 10 11 12
540
FTUS46 KLOX 190557
TAFOXR
TAF
KOXR 190557Z 1906/2006 03003KT P6SM SKC
     FM191300 VRB03KT 2SM BR VCFG BKN004
     FM191700 26006KT 6SM BR SCT007 SCT250
     FM192000 27014KT P6SM SCT250
     FM200300 29006KT P6SM SCT012 SCT250=

USA.gov is the U.S. government's official web portal to all federal, state and local government web resources and services.